createdAt,value
2017-06-21T00:01:55.231Z,22.00
2017-06-21T00:04:26.414Z,22.10
2017-06-21T00:07:01.846Z,22.20
2017-06-21T00:09:30.755Z,22.30
2017-06-21T00:12:02.718Z,22.30
2017-06-21T00:14:36.407Z,22.30
2017-06-21T00:17:10.226Z,22.30
2017-06-21T00:20:03.222Z,22.40
2017-06-21T00:22:47.838Z,22.40
2017-06-21T00:25:27.503Z,22.40
2017-06-21T00:28:22.538Z,22.40
2017-06-21T00:31:03.927Z,22.40
2017-06-21T00:33:45.390Z,22.40
2017-06-21T00:36:17.510Z,22.40
2017-06-21T00:42:03.150Z,22.40
2017-06-21T00:44:53.962Z,22.50
2017-06-21T00:47:46.514Z,22.40
2017-06-21T00:50:20.230Z,22.40
2017-06-21T00:52:54.581Z,22.40
2017-06-21T00:55:29.106Z,22.50
2017-06-21T00:58:13.498Z,22.40
2017-06-21T01:00:42.458Z,22.40
2017-06-21T01:03:25.822Z,22.40
2017-06-21T01:08:49.206Z,22.30
2017-06-21T01:11:27.154Z,22.30
2017-06-21T01:14:05.270Z,22.30
2017-06-21T01:16:45.474Z,22.30
2017-06-21T01:19:19.195Z,22.30
2017-06-21T01:22:16.349Z,22.30
2017-06-21T01:24:54.885Z,22.30
2017-06-21T01:27:25.941Z,22.30
2017-06-21T01:29:53.954Z,22.20
2017-06-21T01:32:21.966Z,22.30
2017-06-21T01:35:00.885Z,22.20
2017-06-21T01:37:36.417Z,22.20
2017-06-21T01:40:25.269Z,22.20
2017-06-21T01:43:00.751Z,22.20
2017-06-21T01:45:30.721Z,22.20
2017-06-21T01:48:00.681Z,22.20
2017-06-21T01:50:32.057Z,22.20
2017-06-21T01:53:04.633Z,22.10
2017-06-21T01:55:36.309Z,22.10
2017-06-21T01:58:24.784Z,22.10
2017-06-21T02:00:52.813Z,22.10
2017-06-21T02:03:21.594Z,22.10
2017-06-21T02:06:05.773Z,22.00
2017-06-21T02:08:48.257Z,22.00
2017-06-21T02:14:22.733Z,22.10
2017-06-21T02:19:52.132Z,22.00
2017-06-21T02:22:20.113Z,22.00
2017-06-21T02:27:41.841Z,22.20
2017-06-21T02:30:26.289Z,22.10
2017-06-21T02:33:10.212Z,22.00
2017-06-21T02:35:52.937Z,21.90
2017-06-21T02:38:20.972Z,21.90
2017-06-21T02:40:54.061Z,22.00
2017-06-21T02:43:26.876Z,22.10
2017-06-21T02:45:59.733Z,22.00
2017-06-21T02:48:36.376Z,22.00
2017-06-21T02:51:18.841Z,22.00
2017-06-21T02:56:41.117Z,22.10
2017-06-21T02:59:09.160Z,22.10
2017-06-21T03:01:37.937Z,22.10
2017-06-21T03:04:06.113Z,22.10
2017-06-21T03:06:34.140Z,22.10
2017-06-21T03:09:02.161Z,22.10
2017-06-21T03:11:30.164Z,22.10
2017-06-21T03:13:58.200Z,22.10
2017-06-21T03:16:26.204Z,22.10
2017-06-21T03:18:54.364Z,22.20
2017-06-21T03:21:22.356Z,22.20
2017-06-21T03:23:50.360Z,22.20
2017-06-21T03:26:18.364Z,22.20
2017-06-21T03:28:46.411Z,22.20
2017-06-21T03:31:14.428Z,22.20
2017-06-21T03:33:42.440Z,22.10
2017-06-21T03:36:10.476Z,21.90
2017-06-21T03:38:38.480Z,21.90
2017-06-21T03:41:06.516Z,22.00
2017-06-21T03:43:35.448Z,22.00
2017-06-21T03:46:03.456Z,22.00
2017-06-21T03:48:31.467Z,22.00
2017-06-21T03:50:59.504Z,22.10
2017-06-21T03:53:27.612Z,22.10
2017-06-21T03:55:55.635Z,21.90
2017-06-21T03:58:23.679Z,21.70
2017-06-21T04:00:52.451Z,21.70
2017-06-21T04:03:20.488Z,21.60
2017-06-21T04:05:48.523Z,21.70
2017-06-21T04:08:16.540Z,21.70
2017-06-21T04:10:44.552Z,21.80
2017-06-21T04:13:13.340Z,21.80
2017-06-21T04:15:42.123Z,21.90
2017-06-21T04:18:10.891Z,22.00
2017-06-21T04:20:38.933Z,22.00
2017-06-21T04:23:06.944Z,22.00
2017-06-21T04:25:35.727Z,22.20
2017-06-21T04:28:03.743Z,22.10
2017-06-21T04:30:31.779Z,22.10
2017-06-21T04:33:00.579Z,22.20
2017-06-21T04:35:29.347Z,22.30
2017-06-21T04:37:58.127Z,22.30
2017-06-21T04:40:26.147Z,22.30
2017-06-21T04:42:54.167Z,22.50
2017-06-21T04:45:22.947Z,22.60
2017-06-21T04:47:50.963Z,22.60
2017-06-21T04:50:19.003Z,22.70
2017-06-21T04:52:47.779Z,22.70
2017-06-21T04:55:15.787Z,22.70
2017-06-21T04:57:43.823Z,22.80
2017-06-21T05:00:12.607Z,22.90
2017-06-21T05:02:40.619Z,22.90
2017-06-21T05:05:08.655Z,22.90
2017-06-21T05:07:36.679Z,23.00
2017-06-21T05:10:04.687Z,23.10
2017-06-21T05:12:33.667Z,23.00
2017-06-21T05:15:01.679Z,23.10
2017-06-21T05:17:29.691Z,23.10
2017-06-21T05:19:57.727Z,23.10
2017-06-21T05:22:25.735Z,23.10
2017-06-21T05:24:53.743Z,23.10
2017-06-21T05:27:21.755Z,23.10
2017-06-21T05:29:49.764Z,23.20
2017-06-21T05:32:17.770Z,23.20
2017-06-21T05:34:45.815Z,23.20
2017-06-21T05:37:14.590Z,23.30
2017-06-21T05:39:42.594Z,23.30
2017-06-21T05:42:10.630Z,23.30
2017-06-21T05:44:38.639Z,23.30
2017-06-21T05:47:06.647Z,23.40
2017-06-21T05:49:34.683Z,23.30
2017-06-21T05:52:02.686Z,23.20
2017-06-21T05:54:30.707Z,23.30
2017-06-21T05:56:58.779Z,23.30
2017-06-21T05:59:26.750Z,23.10
2017-06-21T06:01:55.074Z,23.20
2017-06-21T06:04:23.106Z,23.30
2017-06-21T06:06:51.110Z,23.40
2017-06-21T06:09:19.122Z,23.60
2017-06-21T06:11:47.158Z,23.60
2017-06-21T06:14:15.191Z,23.70
2017-06-21T06:16:43.195Z,23.80
2017-06-21T06:19:11.210Z,23.70
2017-06-21T06:21:39.226Z,23.70
2017-06-21T06:24:07.234Z,23.80
2017-06-21T06:26:36.042Z,23.90
2017-06-21T06:29:04.058Z,23.90
2017-06-21T06:31:32.074Z,24.00
2017-06-21T06:34:00.118Z,24.10
2017-06-21T06:36:28.894Z,24.40
2017-06-21T06:38:56.898Z,24.40
2017-06-21T06:41:24.930Z,24.50
2017-06-21T06:43:52.934Z,24.30
2017-06-21T06:46:20.942Z,24.20
2017-06-21T06:48:48.991Z,24.30
2017-06-21T06:51:16.998Z,24.40
2017-06-21T06:53:45.006Z,24.50
2017-06-21T06:56:13.789Z,24.80
2017-06-21T06:58:41.818Z,24.80
2017-06-21T07:01:09.825Z,24.90
2017-06-21T07:03:38.638Z,25.30
2017-06-21T07:06:06.649Z,25.20
2017-06-21T07:08:34.657Z,25.40
2017-06-21T07:11:03.470Z,25.60
2017-06-21T07:13:31.481Z,25.60
2017-06-21T07:15:59.494Z,25.70
2017-06-21T07:18:27.538Z,25.70
2017-06-21T07:20:55.546Z,25.80
2017-06-21T07:23:23.554Z,25.90
2017-06-21T07:25:51.597Z,25.80
2017-06-21T07:28:19.609Z,25.80
2017-06-21T07:30:47.617Z,26.00
2017-06-21T07:33:15.658Z,26.10
2017-06-21T07:35:43.670Z,26.20
2017-06-21T07:38:11.674Z,26.30
2017-06-21T07:40:39.713Z,26.50
2017-06-21T07:43:07.717Z,26.50
2017-06-21T07:45:35.725Z,26.60
2017-06-21T07:48:03.749Z,26.40
2017-06-21T07:50:31.758Z,26.50
2017-06-21T07:53:00.529Z,26.60
2017-06-21T07:55:28.561Z,26.60
2017-06-21T07:57:56.569Z,26.70
2017-06-21T08:00:24.581Z,26.80
2017-06-21T08:02:52.621Z,26.80
2017-06-21T08:05:21.397Z,26.30
2017-06-21T08:07:49.425Z,26.30
2017-06-21T08:10:17.470Z,26.50
2017-06-21T08:12:45.481Z,26.80
2017-06-21T08:15:13.489Z,26.90
2017-06-21T08:17:42.277Z,27.20
2017-06-21T08:20:11.049Z,27.00
2017-06-21T08:22:39.053Z,27.00
2017-06-21T08:25:07.493Z,27.00
2017-06-21T08:27:35.496Z,27.10
2017-06-21T08:30:03.513Z,27.10
2017-06-21T08:32:31.545Z,27.10
2017-06-21T08:34:59.551Z,27.20
2017-06-21T08:37:27.580Z,27.50
2017-06-21T08:39:56.344Z,27.80
2017-06-21T08:42:24.352Z,27.80
2017-06-21T08:44:52.356Z,28.10
2017-06-21T08:47:20.377Z,28.10
2017-06-21T08:49:48.380Z,27.90
2017-06-21T08:52:16.393Z,27.80
2017-06-21T08:54:45.197Z,27.90
2017-06-21T08:57:13.212Z,27.90
2017-06-21T08:59:41.221Z,28.10
2017-06-21T09:02:09.260Z,28.40
2017-06-21T09:04:37.272Z,28.60
2017-06-21T09:07:05.296Z,28.70
2017-06-21T09:09:33.308Z,28.90
2017-06-21T09:12:01.317Z,29.00
2017-06-21T09:14:29.328Z,29.00
2017-06-21T09:16:57.372Z,29.00
2017-06-21T09:19:25.380Z,29.00
2017-06-21T09:21:54.157Z,29.20
2017-06-21T09:24:22.956Z,29.30
2017-06-21T09:26:51.736Z,29.20
2017-06-21T09:29:20.521Z,29.30
2017-06-21T09:31:48.564Z,29.30
2017-06-21T09:34:16.568Z,29.40
2017-06-21T09:36:45.348Z,29.50
2017-06-21T09:39:14.160Z,29.40
2017-06-21T09:41:42.173Z,29.40
2017-06-21T09:44:10.185Z,29.50
2017-06-21T09:46:38.987Z,29.70
2017-06-21T09:49:06.999Z,29.60
2017-06-21T09:51:35.015Z,29.70
2017-06-21T09:54:03.053Z,29.90
2017-06-21T09:56:31.064Z,30.00
2017-06-21T09:58:59.084Z,30.20
2017-06-21T10:01:27.124Z,30.20
2017-06-21T10:03:55.136Z,30.30
2017-06-21T10:06:24.168Z,30.40
2017-06-21T10:08:52.200Z,30.50
2017-06-21T10:11:20.316Z,30.60
2017-06-21T10:13:48.279Z,30.60
2017-06-21T10:16:16.327Z,30.60
2017-06-21T10:18:45.135Z,30.80
2017-06-21T10:21:13.124Z,30.80
2017-06-21T10:23:41.143Z,31.00
2017-06-21T10:26:09.151Z,31.00
2017-06-21T10:28:37.160Z,31.00
2017-06-21T10:31:05.196Z,31.20
2017-06-21T10:33:33.207Z,31.20
2017-06-21T10:36:01.239Z,31.10
2017-06-21T10:38:29.279Z,31.20
2017-06-21T10:40:57.291Z,31.20
2017-06-21T10:43:25.299Z,31.30
2017-06-21T10:45:53.335Z,31.40
2017-06-21T10:48:21.352Z,31.50
2017-06-21T10:50:50.124Z,31.80
2017-06-21T10:53:18.175Z,31.80
2017-06-21T10:55:46.183Z,31.70
2017-06-21T10:58:14.199Z,31.80
2017-06-21T11:00:42.243Z,31.80
2017-06-21T11:03:10.255Z,32.00
2017-06-21T11:05:38.266Z,32.10
2017-06-21T11:08:07.080Z,32.20
2017-06-21T11:10:35.087Z,32.20
2017-06-21T11:13:03.104Z,32.10
2017-06-21T11:15:31.131Z,32.00
2017-06-21T11:17:59.151Z,32.10
2017-06-21T11:20:27.162Z,32.10
2017-06-21T11:22:55.179Z,32.40
2017-06-21T11:25:23.187Z,32.50
2017-06-21T11:27:51.194Z,32.60
2017-06-21T11:30:19.226Z,32.60
2017-06-21T11:32:47.243Z,32.60
2017-06-21T11:35:15.267Z,32.60
2017-06-21T11:37:43.298Z,32.60
2017-06-21T11:40:11.307Z,32.70
2017-06-21T11:42:39.315Z,32.60
2017-06-21T11:45:07.359Z,32.70
2017-06-21T11:47:35.362Z,32.60
2017-06-21T11:50:03.374Z,32.60
2017-06-21T11:52:31.390Z,32.60
2017-06-21T11:54:59.395Z,32.10
2017-06-21T11:57:27.402Z,32.20
2017-06-21T11:59:55.434Z,32.40
2017-06-21T12:02:23.442Z,32.60
2017-06-21T12:04:51.450Z,32.80
2017-06-21T12:07:19.487Z,32.90
2017-06-21T12:09:47.494Z,33.00
2017-06-21T12:12:16.271Z,33.00
2017-06-21T12:14:44.286Z,33.00
2017-06-21T12:17:12.294Z,33.10
2017-06-21T12:19:40.298Z,33.10
2017-06-21T12:22:08.338Z,33.20
2017-06-21T12:24:36.343Z,33.20
2017-06-21T12:27:04.356Z,33.10
2017-06-21T12:29:32.375Z,33.20
2017-06-21T12:32:00.390Z,33.40
2017-06-21T12:34:28.400Z,33.50
2017-06-21T12:36:56.441Z,33.60
2017-06-21T12:39:24.454Z,33.50
2017-06-21T12:41:52.489Z,33.50
2017-06-21T12:44:20.506Z,33.60
2017-06-21T12:46:48.516Z,33.60
2017-06-21T12:49:16.518Z,33.50
2017-06-21T12:51:45.298Z,33.30
2017-06-21T12:54:13.694Z,33.30
2017-06-21T12:56:41.653Z,33.20
2017-06-21T12:59:09.674Z,33.20
2017-06-21T13:01:37.678Z,33.20
2017-06-21T13:04:05.689Z,33.40
2017-06-21T13:06:33.710Z,33.20
2017-06-21T13:09:01.717Z,33.20
2017-06-21T13:11:29.718Z,33.10
2017-06-21T13:13:57.761Z,33.20
2017-06-21T13:16:25.770Z,33.20
2017-06-21T13:18:53.777Z,33.40
2017-06-21T13:21:21.866Z,33.50
2017-06-21T13:23:49.826Z,33.60
2017-06-21T13:26:17.829Z,33.80
2017-06-21T13:28:45.873Z,34.00
2017-06-21T13:31:13.889Z,34.20
2017-06-21T13:33:41.897Z,34.20
2017-06-21T13:36:10.681Z,34.00
2017-06-21T13:38:38.709Z,34.00
2017-06-21T13:41:06.722Z,34.00
2017-06-21T13:43:34.753Z,34.00
2017-06-21T13:46:02.761Z,33.70
2017-06-21T13:48:31.533Z,33.80
2017-06-21T13:50:59.562Z,33.80
2017-06-21T13:53:27.569Z,33.80
2017-06-21T13:55:55.577Z,33.80
2017-06-21T13:58:23.609Z,33.60
2017-06-21T14:00:51.621Z,33.80
2017-06-21T14:03:19.629Z,34.00
2017-06-21T14:05:47.669Z,34.20
2017-06-21T14:08:15.677Z,34.30
2017-06-21T14:10:43.693Z,34.40
2017-06-21T14:13:11.732Z,34.30
2017-06-21T14:15:39.741Z,34.30
2017-06-21T14:18:07.744Z,34.30
2017-06-21T14:20:35.765Z,34.40
2017-06-21T14:23:03.773Z,34.40
2017-06-21T14:25:31.781Z,34.50
2017-06-21T14:27:59.805Z,34.60
2017-06-21T14:30:27.813Z,34.70
2017-06-21T14:32:55.821Z,34.80
2017-06-21T14:35:23.853Z,34.80
2017-06-21T14:37:51.860Z,34.80
2017-06-21T14:40:19.869Z,34.70
2017-06-21T14:42:47.908Z,34.70
2017-06-21T14:45:15.912Z,34.70
2017-06-21T14:47:43.920Z,34.60
2017-06-21T14:50:12.740Z,34.50
2017-06-21T14:52:40.744Z,34.50
2017-06-21T14:55:08.749Z,34.40
2017-06-21T14:57:36.833Z,34.40
2017-06-21T15:00:04.801Z,34.30
2017-06-21T15:02:32.816Z,34.30
2017-06-21T15:05:00.849Z,34.20
2017-06-21T15:07:28.856Z,34.00
2017-06-21T15:09:56.864Z,34.00
2017-06-21T15:12:24.880Z,33.80
2017-06-21T15:14:52.889Z,33.70
2017-06-21T15:17:20.893Z,33.80
2017-06-21T15:19:48.924Z,33.90
2017-06-21T15:22:16.945Z,34.00
2017-06-21T15:24:44.952Z,34.00
2017-06-21T15:27:12.984Z,34.00
2017-06-21T15:29:40.991Z,34.00
2017-06-21T15:32:08.992Z,34.00
2017-06-21T15:34:37.788Z,34.00
2017-06-21T15:37:05.804Z,34.00
2017-06-21T15:39:33.816Z,33.90
2017-06-21T15:42:02.620Z,33.80
2017-06-21T15:44:30.640Z,33.80
2017-06-21T15:46:58.661Z,33.80
2017-06-21T15:49:26.704Z,33.80
2017-06-21T15:51:54.716Z,33.90
2017-06-21T15:54:22.724Z,33.80
2017-06-21T15:56:50.759Z,33.70
2017-06-21T15:59:18.772Z,33.70
2017-06-21T16:01:46.792Z,33.60
2017-06-21T16:04:15.471Z,33.50
2017-06-21T16:06:43.480Z,33.40
2017-06-21T16:09:11.488Z,33.30
2017-06-21T16:11:40.288Z,33.30
2017-06-21T16:14:08.311Z,33.40
2017-06-21T16:16:36.328Z,33.30
2017-06-21T16:19:04.356Z,33.30
2017-06-21T16:21:32.367Z,33.20
2017-06-21T16:24:00.380Z,33.30
2017-06-21T16:26:28.420Z,33.40
2017-06-21T16:28:56.432Z,33.50
2017-06-21T16:31:24.448Z,33.50
2017-06-21T16:33:52.487Z,33.50
2017-06-21T16:36:20.495Z,33.40
2017-06-21T16:38:48.504Z,33.40
2017-06-21T16:41:16.539Z,33.10
2017-06-21T16:43:44.555Z,33.00
2017-06-21T16:46:12.563Z,32.90
2017-06-21T16:48:40.611Z,32.80
2017-06-21T16:51:08.623Z,32.60
2017-06-21T16:53:36.635Z,32.60
2017-06-21T16:56:04.659Z,32.40
2017-06-21T16:58:32.671Z,32.40
2017-06-21T17:01:00.683Z,32.40
2017-06-21T17:03:28.731Z,32.30
2017-06-21T17:05:56.747Z,32.20
2017-06-21T17:08:24.759Z,32.00
2017-06-21T17:10:52.775Z,31.90
2017-06-21T17:13:20.787Z,31.90
2017-06-21T17:15:48.799Z,31.80
2017-06-21T17:18:16.848Z,31.80
2017-06-21T17:20:44.855Z,31.80
2017-06-21T17:23:12.867Z,31.70
2017-06-21T17:25:40.919Z,31.80
2017-06-21T17:28:08.927Z,31.70
2017-06-21T17:30:37.707Z,31.50
2017-06-21T17:33:05.727Z,31.50
2017-06-21T17:35:33.731Z,31.50
2017-06-21T17:38:01.743Z,31.50
2017-06-21T17:40:29.787Z,31.70
2017-06-21T17:42:57.791Z,31.80
2017-06-21T17:45:25.807Z,31.70
2017-06-21T17:47:53.830Z,31.50
2017-06-21T17:50:21.858Z,31.40
2017-06-21T17:52:49.863Z,31.40
2017-06-21T17:55:17.878Z,31.40
2017-06-21T17:57:45.886Z,31.30
2017-06-21T18:00:13.899Z,31.10
2017-06-21T18:02:41.914Z,31.00
2017-06-21T18:05:10.687Z,30.70
2017-06-21T18:07:38.701Z,30.70
2017-06-21T18:10:07.670Z,30.60
2017-06-21T18:12:35.678Z,30.70
2017-06-21T18:15:03.690Z,30.60
2017-06-21T18:17:31.742Z,30.60
2017-06-21T18:19:59.734Z,30.60
2017-06-21T18:22:27.747Z,30.50
2017-06-21T18:24:55.799Z,30.50
2017-06-21T18:27:24.751Z,30.30
2017-06-21T18:29:53.971Z,30.30
2017-06-21T18:32:22.758Z,30.10
2017-06-21T18:34:50.774Z,30.10
2017-06-21T18:37:18.786Z,30.00
2017-06-21T18:39:46.818Z,29.90
2017-06-21T18:42:14.822Z,29.70
2017-06-21T18:44:42.831Z,29.60
2017-06-21T18:47:10.862Z,29.60
2017-06-21T18:49:38.906Z,29.70
2017-06-21T18:52:06.930Z,29.60
2017-06-21T18:54:34.962Z,29.50
2017-06-21T18:57:02.982Z,29.50
2017-06-21T18:59:31.014Z,29.50
2017-06-21T19:01:59.054Z,29.50
2017-06-21T19:04:27.066Z,29.50
2017-06-21T19:06:55.846Z,29.30
2017-06-21T19:09:23.865Z,29.30
2017-06-21T19:11:51.878Z,29.20
2017-06-21T19:14:19.914Z,29.20
2017-06-21T19:16:47.940Z,29.10
2017-06-21T19:19:16.718Z,29.00
2017-06-21T19:21:44.730Z,29.00
2017-06-21T19:24:12.750Z,29.00
2017-06-21T19:26:40.758Z,28.90
2017-06-21T19:29:08.771Z,28.90
2017-06-21T19:31:36.802Z,28.80
2017-06-21T19:34:05.725Z,28.70
2017-06-21T19:36:33.734Z,28.60
2017-06-21T19:39:02.521Z,28.40
2017-06-21T19:41:31.293Z,28.30
2017-06-21T19:43:59.301Z,28.30
2017-06-21T19:46:27.342Z,28.30
2017-06-21T19:48:56.117Z,27.70
2017-06-21T19:51:30.030Z,27.70
2017-06-21T20:20:57.457Z,25.80
2017-06-21T20:23:25.473Z,25.70
2017-06-21T20:25:54.437Z,25.60
2017-06-21T20:28:23.249Z,25.40
2017-06-21T20:30:52.161Z,25.40
2017-06-21T20:33:20.173Z,25.30
2017-06-21T20:35:48.245Z,25.30
2017-06-21T20:38:26.093Z,25.40
2017-06-21T20:40:57.197Z,25.50
2017-06-21T20:43:27.117Z,25.50
2017-06-21T20:45:56.021Z,25.50
2017-06-21T20:48:24.033Z,25.50
2017-06-21T20:50:52.045Z,25.60
2017-06-21T20:53:24.517Z,25.70
2017-06-21T20:55:53.298Z,25.70
2017-06-21T20:58:22.973Z,25.70
2017-06-21T21:00:55.738Z,25.70
2017-06-21T21:03:27.313Z,25.70
2017-06-21T21:05:55.349Z,25.70
2017-06-21T21:08:23.352Z,25.60
2017-06-21T21:10:54.516Z,25.60
2017-06-21T21:13:24.204Z,25.50
2017-06-21T21:18:47.920Z,25.50
2017-06-21T21:21:20.716Z,25.00
2017-06-21T21:23:49.497Z,24.50
2017-06-21T21:26:23.408Z,24.50
2017-06-21T21:28:57.944Z,24.20
2017-06-21T21:31:26.889Z,24.20
2017-06-21T21:36:48.588Z,24.30
2017-06-21T21:39:18.536Z,24.30
2017-06-21T21:42:06.232Z,24.40
2017-06-21T21:44:51.065Z,24.40
2017-06-21T21:47:19.116Z,24.40
2017-06-21T21:49:51.880Z,24.30
2017-06-21T21:52:25.636Z,24.20
2017-06-21T21:54:54.548Z,24.00
2017-06-21T21:57:22.576Z,24.00
2017-06-21T21:59:54.219Z,24.00
2017-06-21T22:02:24.132Z,24.00
2017-06-21T22:04:52.144Z,24.00
2017-06-21T22:07:20.175Z,23.90
2017-06-21T22:09:48.964Z,23.60
2017-06-21T22:12:17.936Z,23.60
2017-06-21T22:14:45.980Z,23.20
2017-06-21T22:17:13.996Z,23.00
2017-06-21T22:19:42.016Z,22.80
2017-06-21T22:22:11.088Z,22.80
2017-06-21T22:24:42.309Z,22.80
2017-06-21T22:27:11.092Z,22.70
2017-06-21T22:29:40.012Z,22.70
2017-06-21T22:32:09.928Z,22.60
2017-06-21T22:34:38.859Z,22.50
2017-06-21T22:37:06.871Z,22.60
2017-06-21T22:39:36.855Z,22.80
2017-06-21T22:42:10.580Z,22.90
2017-06-21T22:44:39.375Z,23.00
2017-06-21T22:47:13.555Z,23.00
2017-06-21T22:49:42.475Z,23.00
2017-06-21T22:52:11.263Z,23.00
2017-06-21T22:54:41.199Z,23.00
2017-06-21T22:57:11.107Z,23.00
2017-06-21T22:59:41.031Z,23.10
2017-06-21T23:02:09.972Z,23.00
2017-06-21T23:04:38.879Z,23.00
2017-06-21T23:07:21.039Z,23.00
2017-06-21T23:09:49.047Z,23.10
2017-06-21T23:12:17.064Z,23.00
2017-06-21T23:14:45.444Z,23.00
2017-06-21T23:17:13.451Z,23.00
2017-06-21T23:19:41.467Z,23.00
2017-06-21T23:22:09.495Z,23.00
2017-06-21T23:24:37.507Z,22.90
2017-06-21T23:27:05.523Z,23.00
2017-06-21T23:29:33.563Z,23.00
2017-06-21T23:32:01.583Z,22.90
2017-06-21T23:34:29.598Z,22.90
2017-06-21T23:36:57.655Z,22.80
2017-06-21T23:39:25.680Z,22.80
2017-06-21T23:41:53.694Z,22.80
2017-06-21T23:44:21.755Z,22.80
2017-06-21T23:46:51.526Z,22.60
2017-06-21T23:49:19.546Z,22.60
2017-06-21T23:51:47.567Z,22.50
2017-06-21T23:54:15.583Z,22.40
2017-06-21T23:56:43.607Z,22.40
2017-06-21T23:59:11.622Z,22.00
